KLWT/LWT METAR and TAF weather

Enter ICAO airport designator
Station Type Date Time Source
KLWT METAR 2022/05/23 12:54 UTC NOAA

KLWT 231254Z AUTO 11004KT 10SM SCT100 01/M02 A3011 RMK AO2 SLP201 T00111017


Station Type Date Time Source
KLWT Decoded METAR 2022/05/23 12:54 UTC NOAA

LEWISTOWN MUNICIPAL AIRPORT , MT, United States (KLWT) 47-03N 109-27W
May 23, 2022 - 08:54 AM EDT / 2022.05.23 1254 UTC
Wind: from the ESE (110 degrees) at 5 MPH (4 KT):0
Visibility: 10 mile(s):0
Sky conditions: partly cloudy
Temperature: 34.0 F (1.1 C)
Windchill: 30 F (-1 C):1
Dew Point: 28.9 F (-1.7 C)
Relative Humidity: 81%
Pressure (altimeter): 30.11 in. Hg (1019 hPa)
ob: KLWT 231254Z AUTO 11004KT 10SM SCT100 01/M02 A3011 RMK AO2 SLP201 T00111017
cycle: 13

Station Type Date Time Source
KLWT TAF 2022/05/23 12:42 UTC NOAA

TAF KLWT 231141Z 2312/2412 VRB06KT P6SM SCT100 SCT200

Example: see airport list